Time;durP1;ratioP1;P1;durP2;ratioP2;P2;SDS_P1;SDS_P2;PMS_P1;PMS_P2;Temp;Humidity;BMP_temperature;BMP_pressure;BME280_temperature;BME280_humidity;BME280_pressure;Samples;Min_cycle;Max_cycle;Signal;HPM_P1;HPM_P2
2021/12/28 00:01:59;;;;;;;9.47;6.50;;;;;;;4.92;66.45;99731.75;4927184;28;115749;-85
2021/12/28 00:04:24;;;;;;;13.23;7.30;;;;;;;4.92;66.39;99739.19;4949173;28;101605;-83
2021/12/28 00:06:49;;;;;;;9.23;6.37;;;;;;;4.92;66.43;99744.63;4928214;28;114561;-84
2021/12/28 00:09:15;;;;;;;9.70;6.23;;;;;;;4.90;66.61;99753.28;4925947;28;120310;-83
2021/12/28 00:11:40;;;;;;;9.90;6.20;;;;;;;4.91;66.68;99756.78;4929953;28;98675;-84
2021/12/28 00:14:06;;;;;;;8.63;6.27;;;;;;;4.93;66.71;99746.13;4928299;28;110386;-87
2021/12/28 00:19:17;;;;;;;7.70;5.50;;;;;;;4.89;66.53;99729.97;4924456;28;101456;-84
2021/12/28 00:21:42;;;;;;;12.00;6.80;;;;;;;4.86;66.63;99736.41;4939857;28;115095;-84
2021/12/28 00:24:07;;;;;;;11.77;7.00;;;;;;;4.90;66.38;99730.72;4925593;28;108416;-84
2021/12/28 00:26:32;;;;;;;10.00;5.93;;;;;;;4.94;66.57;99750.34;4928304;28;107260;-84
2021/12/28 00:28:58;;;;;;;9.27;6.80;;;;;;;4.93;66.45;99740.69;4923626;28;98081;-84
2021/12/28 00:31:24;;;;;;;8.67;6.43;;;;;;;4.97;66.75;99719.44;4926859;28;126586;-84
2021/12/28 00:33:50;;;;;;;9.07;6.07;;;;;;;4.98;67.04;99721.69;4927811;28;96796;-84
2021/12/28 00:36:15;;;;;;;7.37;5.73;;;;;;;4.99;66.80;99711.53;4925289;28;97018;-84
2021/12/28 00:38:41;;;;;;;10.03;6.50;;;;;;;5.02;66.56;99721.50;4921230;28;97513;-84
2021/12/28 00:41:07;;;;;;;10.40;7.17;;;;;;;5.03;66.48;99722.97;4922873;28;98888;-83
2021/12/28 00:43:33;;;;;;;9.20;6.33;;;;;;;4.99;66.67;99738.78;4930657;28;97259;-84
2021/12/28 00:45:59;;;;;;;10.30;7.30;;;;;;;5.04;66.54;99735.38;4926719;28;97243;-85
2021/12/28 00:48:24;;;;;;;11.53;6.77;;;;;;;5.01;66.78;99709.84;4923451;28;100565;-84
2021/12/28 00:50:52;;;;;;;10.70;6.90;;;;;;;5.03;66.62;99701.16;4928601;28;99194;-84
2021/12/28 00:53:17;;;;;;;8.73;6.50;;;;;;;5.03;66.85;99690.28;4926069;28;96802;-84
2021/12/28 00:55:42;;;;;;;11.87;7.60;;;;;;;5.06;67.06;99679.19;4929733;28;97176;-84
2021/12/28 00:58:08;;;;;;;13.03;7.30;;;;;;;5.06;66.82;99697.50;4925149;28;97614;-86
2021/12/28 01:00:36;;;;;;;8.87;7.03;;;;;;;5.02;66.97;99675.16;4926504;28;98997;-84
2021/12/28 01:03:04;;;;;;;8.87;6.00;;;;;;;5.03;66.85;99665.75;4925203;28;98317;-83
2021/12/28 01:05:30;;;;;;;11.23;8.07;;;;;;;5.01;66.81;99666.22;4925918;28;97726;-83
2021/12/28 01:07:56;;;;;;;11.17;7.00;;;;;;;4.98;66.86;99666.44;4926212;28;98471;-84
2021/12/28 01:10:25;;;;;;;11.07;6.70;;;;;;;4.97;66.80;99670.38;4925868;28;100245;-84
2021/12/28 01:12:52;;;;;;;12.43;7.60;;;;;;;5.00;67.17;99669.44;4926105;28;97117;-83
2021/12/28 01:15:19;;;;;;;10.80;7.17;;;;;;;5.00;67.04;99664.00;4926733;28;97158;-84
2021/12/28 01:17:44;;;;;;;10.27;6.80;;;;;;;5.02;67.17;99669.72;4927857;28;99578;-84
2021/12/28 01:20:11;;;;;;;10.30;6.27;;;;;;;5.06;67.07;99668.28;4925785;28;98762;-86
2021/12/28 01:22:37;;;;;;;13.50;7.70;;;;;;;5.04;67.01;99665.28;4925342;28;97147;-84
2021/12/28 01:25:04;;;;;;;10.53;7.83;;;;;;;5.07;66.91;99658.09;4926378;28;97857;-83
2021/12/28 01:27:30;;;;;;;11.40;7.43;;;;;;;5.07;66.79;99664.31;4921170;28;99319;-84
2021/12/28 01:29:55;;;;;;;11.83;7.47;;;;;;;5.06;66.84;99664.78;4922209;28;121740;-84
2021/12/28 01:32:21;;;;;;;9.57;6.97;;;;;;;5.03;66.76;99658.31;4920511;28;97539;-84
2021/12/28 01:34:46;;;;;;;10.50;7.17;;;;;;;5.05;66.78;99666.00;4926086;28;97081;-83
2021/12/28 01:37:11;;;;;;;13.03;7.80;;;;;;;5.07;66.77;99649.91;4915327;28;96752;-84
2021/12/28 01:39:37;;;;;;;11.00;7.60;;;;;;;5.04;66.83;99700.72;4917655;28;98951;-84
2021/12/28 01:42:05;;;;;;;12.50;7.90;;;;;;;5.10;67.22;99647.00;4927050;28;102674;-85
2021/12/28 01:44:31;;;;;;;12.60;7.47;;;;;;;5.08;66.90;99660.38;4924099;28;97268;-85
2021/12/28 01:46:57;;;;;;;11.90;7.77;;;;;;;5.11;66.79;99658.66;4922548;28;97715;-84
2021/12/28 01:49:22;;;;;;;14.70;8.50;;;;;;;5.12;66.83;99639.09;4926099;28;98950;-84
2021/12/28 01:51:48;;;;;;;11.90;7.20;;;;;;;5.10;66.91;99640.78;4926009;28;96821;-84
2021/12/28 01:54:13;;;;;;;9.97;7.03;;;;;;;5.10;66.85;99646.25;4924855;28;97201;-85
2021/12/28 01:56:44;;;;;;;10.70;7.23;;;;;;;5.11;66.95;99643.03;4923659;28;112608;-83
2021/12/28 01:59:10;;;;;;;10.63;7.27;;;;;;;5.07;66.95;99636.28;4925202;28;99462;-84
2021/12/28 02:01:36;;;;;;;11.90;7.77;;;;;;;5.07;67.13;99658.09;4923648;28;103476;-83
2021/12/28 02:04:11;;;;;;;11.50;8.00;;;;;;;5.07;66.80;99647.94;4924361;28;97727;-81
2021/12/28 02:06:36;;;;;;;14.60;7.90;;;;;;;4.98;66.96;99641.91;4922128;28;100631;-84
2021/12/28 02:09:03;;;;;;;12.43;7.57;;;;;;;5.04;66.79;99648.94;4927227;28;99089;-83
2021/12/28 02:11:28;;;;;;;13.83;8.27;;;;;;;5.05;66.71;99636.03;4923826;28;97807;-83
2021/12/28 02:13:54;;;;;;;14.67;8.50;;;;;;;5.04;67.03;99637.28;4927351;28;97638;-84
2021/12/28 02:16:19;;;;;;;10.80;7.60;;;;;;;5.07;66.88;99649.91;4925589;28;100642;-83
2021/12/28 02:18:45;;;;;;;14.30;8.40;;;;;;;5.12;66.94;99632.88;4922999;28;102997;-85
2021/12/28 02:21:11;;;;;;;13.37;8.23;;;;;;;5.09;66.86;99642.78;4927267;28;97272;-83
2021/12/28 02:23:36;;;;;;;11.67;8.00;;;;;;;5.10;66.81;99646.25;4928918;28;97158;-84
2021/12/28 02:26:02;;;;;;;12.73;7.93;;;;;;;5.10;67.00;99632.63;4926981;28;103513;-84
2021/12/28 02:28:28;;;;;;;14.00;8.27;;;;;;;5.10;66.96;99636.09;4930290;28;104396;-84
2021/12/28 02:30:57;;;;;;;14.23;8.13;;;;;;;5.13;66.82;99639.84;4925144;28;96991;-84
2021/12/28 02:33:26;;;;;;;13.83;8.10;;;;;;;5.13;67.14;99634.41;4930338;28;96648;-84
2021/12/28 02:35:54;;;;;;;13.70;8.27;;;;;;;5.13;66.79;99634.41;4926590;28;102956;-84
2021/12/28 02:38:19;;;;;;;13.10;8.50;;;;;;;5.12;66.73;99630.91;4929114;28;99133;-85
2021/12/28 02:40:45;;;;;;;13.60;8.10;;;;;;;5.13;67.04;99628.94;4930880;28;97148;-84
2021/12/28 02:43:13;;;;;;;12.80;7.33;;;;;;;5.13;66.91;99634.41;4925240;28;96809;-84
2021/12/28 02:45:47;;;;;;;11.87;7.37;;;;;;;5.12;66.90;99632.88;4929777;28;96846;-84
2021/12/28 02:48:13;;;;;;;10.70;7.50;;;;;;;5.09;66.69;99631.88;4928406;28;97086;-83
2021/12/28 02:50:45;;;;;;;12.57;7.50;;;;;;;5.08;67.09;99624.94;4928948;28;97039;-84
2021/12/28 02:53:11;;;;;;;10.10;7.43;;;;;;;5.05;67.16;99639.50;4924291;28;103761;-85
2021/12/28 02:55:38;;;;;;;10.10;6.87;;;;;;;5.06;66.93;99626.63;4926001;28;99535;-84
2021/12/28 02:58:07;;;;;;;12.00;7.60;;;;;;;5.06;67.03;99632.84;4925614;28;99214;-84
2021/12/28 03:00:33;;;;;;;10.43;6.90;;;;;;;5.09;66.93;99610.06;4926420;28;97360;-84
2021/12/28 03:02:59;;;;;;;12.60;8.10;;;;;;;5.12;67.23;99624.72;4924806;28;97372;-84
2021/12/28 03:05:25;;;;;;;14.47;8.17;;;;;;;5.13;67.37;99624.22;4926030;28;99538;-84
2021/12/28 03:07:50;;;;;;;11.73;8.10;;;;;;;5.15;67.16;99613.63;4926156;28;98713;-84
2021/12/28 03:10:16;;;;;;;12.57;8.03;;;;;;;5.16;66.99;99623.28;4924667;28;97983;-83
2021/12/28 03:12:41;;;;;;;10.43;7.33;;;;;;;5.15;66.97;99613.63;4921166;28;98813;-83
2021/12/28 03:15:06;;;;;;;10.77;7.43;;;;;;;5.20;67.08;99617.59;4921789;28;128015;-84
2021/12/28 03:17:32;;;;;;;12.10;7.33;;;;;;;5.19;67.33;99607.94;4924236;28;98488;-83
2021/12/28 03:19:57;;;;;;;17.37;8.43;;;;;;;5.17;67.41;99591.31;4926559;28;97171;-83
2021/12/28 03:22:22;;;;;;;14.07;8.87;;;;;;;5.14;66.89;99584.84;4929543;28;97892;-84
2021/12/28 03:24:48;;;;;;;11.20;7.30;;;;;;;5.13;67.14;99575.16;4927421;28;97318;-85
2021/12/28 03:27:13;;;;;;;11.37;7.70;;;;;;;5.15;67.17;99583.63;4939840;28;129696;-83
2021/12/28 03:29:38;;;;;;;11.27;7.40;;;;;;;5.19;67.34;99584.16;4929911;28;116453;-83
2021/12/28 03:32:04;;;;;;;11.73;7.23;;;;;;;5.22;67.16;99593.34;4924251;28;97250;-83
2021/12/28 03:34:30;;;;;;;16.90;8.40;;;;;;;5.19;67.29;99565.06;4925359;28;98934;-83
2021/12/28 03:36:55;;;;;;;14.33;8.20;;;;;;;5.26;67.23;99566.63;4929698;28;100223;-83
2021/12/28 03:39:20;;;;;;;11.27;7.20;;;;;;;5.25;67.61;99559.66;4926495;28;107143;-83
2021/12/28 03:41:46;;;;;;;12.93;8.10;;;;;;;5.31;67.32;99579.53;4925057;28;97460;-84
2021/12/28 03:44:11;;;;;;;13.17;7.27;;;;;;;5.32;66.83;99568.19;4927227;28;100377;-83
2021/12/28 03:46:36;;;;;;;13.73;8.37;;;;;;;5.32;67.38;99560.00;4926240;28;109041;-83
2021/12/28 03:49:02;;;;;;;12.93;7.90;;;;;;;5.33;67.44;99555.25;4926827;28;107237;-85
2021/12/28 03:51:28;;;;;;;13.73;8.23;;;;;;;5.31;67.23;99555.00;4927295;28;97162;-82
2021/12/28 03:53:53;;;;;;;13.43;8.10;;;;;;;5.35;67.22;99549.34;4919927;28;108933;-84
2021/12/28 03:56:20;;;;;;;13.30;8.63;;;;;;;5.33;67.20;99544.34;4926814;28;98312;-84
2021/12/28 03:58:46;;;;;;;12.47;8.07;;;;;;;5.35;67.51;99541.94;4930338;28;98357;-83
2021/12/28 04:01:14;;;;;;;12.73;8.20;;;;;;;5.38;67.48;99540.94;4927801;28;97928;-84
2021/12/28 04:03:40;;;;;;;12.10;8.00;;;;;;;5.39;67.20;99541.69;4927303;28;102920;-84
2021/12/28 04:06:08;;;;;;;13.10;8.43;;;;;;;5.42;66.97;99552.38;4931447;28;99322;-83
2021/12/28 04:08:35;;;;;;;11.13;7.60;;;;;;;5.42;67.20;99532.56;4924390;28;97582;-83
2021/12/28 04:11:14;;;;;;;14.63;9.40;;;;;;;5.43;67.10;99534.03;4924367;28;96683;-82
2021/12/28 04:13:41;;;;;;;10.17;7.43;;;;;;;5.42;67.22;99541.47;4927868;28;99297;-84
2021/12/28 04:16:06;;;;;;;13.43;8.57;;;;;;;5.44;67.08;99541.72;4922731;28;96860;-83
2021/12/28 04:18:32;;;;;;;13.27;8.17;;;;;;;5.41;67.41;99539.22;4925363;28;96774;-83
2021/12/28 04:20:57;;;;;;;13.10;8.80;;;;;;;5.42;67.35;99529.84;4929906;28;97151;-83
2021/12/28 04:23:22;;;;;;;12.80;8.00;;;;;;;5.42;67.08;99532.56;4923175;28;126259;-84
2021/12/28 04:25:48;;;;;;;12.90;8.13;;;;;;;5.42;67.20;99546.19;4938448;28;122879;-85
2021/12/28 04:28:13;;;;;;;9.77;6.90;;;;;;;5.44;67.41;99549.19;4926083;28;97937;-82
2021/12/28 04:30:38;;;;;;;11.73;7.87;;;;;;;5.46;67.35;99544.00;4921692;28;116459;-84
2021/12/28 04:33:04;;;;;;;13.87;8.67;;;;;;;5.43;67.22;99523.13;4923032;28;98648;-83
2021/12/28 04:35:29;;;;;;;12.63;7.93;;;;;;;5.42;67.27;99536.00;4939023;28;100452;-83
2021/12/28 04:37:54;;;;;;;11.93;8.73;;;;;;;5.42;67.28;99559.84;4927207;28;97178;-83
2021/12/28 04:40:22;;;;;;;15.23;8.77;;;;;;;5.44;67.11;99528.09;4919681;28;97432;-84
2021/12/28 04:42:48;;;;;;;13.70;7.80;;;;;;;5.46;67.22;99531.09;4925912;28;99741;-84
2021/12/28 04:45:15;;;;;;;14.07;8.70;;;;;;;5.48;67.17;99528.66;4920904;28;97758;-84
2021/12/28 04:47:40;;;;;;;13.30;8.20;;;;;;;5.44;66.95;99506.28;4924686;28;97693;-83
2021/12/28 04:50:07;;;;;;;13.80;8.63;;;;;;;5.47;67.15;99505.31;4923696;28;96844;-83
2021/12/28 04:52:36;;;;;;;11.70;7.37;;;;;;;5.47;67.37;99501.84;4918470;28;99150;-83
2021/12/28 04:55:14;;;;;;;11.37;7.93;;;;;;;5.46;67.18;99509.25;4919515;28;99395;-80
2021/12/28 04:57:40;;;;;;;11.70;8.43;;;;;;;5.49;67.45;99504.81;4921136;28;97011;-83
2021/12/28 05:00:09;;;;;;;14.00;8.70;;;;;;;5.49;67.30;99497.41;4919796;28;96879;-83
2021/12/28 05:02:35;;;;;;;15.60;9.50;;;;;;;5.51;67.69;99505.84;4920814;28;99586;-84
2021/12/28 05:05:00;;;;;;;13.80;9.17;;;;;;;5.50;67.26;99504.34;4919263;28;99412;-82
2021/12/28 05:07:27;;;;;;;12.00;8.10;;;;;;;5.50;67.31;99501.63;4920145;28;117289;-84
2021/12/28 05:09:57;;;;;;;13.63;8.57;;;;;;;5.52;67.19;99512.81;4925248;28;97215;-83
2021/12/28 05:12:23;;;;;;;11.80;7.93;;;;;;;5.44;67.18;99495.38;4922502;28;99000;-83
2021/12/28 05:14:48;;;;;;;12.80;8.00;;;;;;;5.50;67.48;99511.78;4924688;28;98884;-84
2021/12/28 05:17:13;;;;;;;14.03;8.40;;;;;;;5.52;67.51;99514.78;4922914;28;117367;-83
2021/12/28 05:19:38;;;;;;;12.60;7.93;;;;;;;5.52;67.56;99501.88;4922506;28;105802;-83
2021/12/28 05:22:04;;;;;;;14.63;8.33;;;;;;;5.51;67.60;99505.09;4922058;28;111228;-84
2021/12/28 05:24:31;;;;;;;17.73;9.10;;;;;;;5.51;67.61;99505.09;4925475;28;97221;-83
2021/12/28 05:26:56;;;;;;;14.20;8.10;;;;;;;5.52;67.51;99496.44;4920683;28;116064;-83
2021/12/28 05:29:21;;;;;;;12.13;8.53;;;;;;;5.54;67.45;99491.25;4921186;28;101409;-84
2021/12/28 05:31:46;;;;;;;12.97;8.37;;;;;;;5.55;67.59;99494.72;4922881;28;125388;-83
2021/12/28 05:34:12;;;;;;;13.80;8.80;;;;;;;5.55;67.68;99502.91;4919566;28;116269;-83
2021/12/28 05:36:37;;;;;;;13.37;8.53;;;;;;;5.55;67.70;99490.00;4915695;28;97098;-84
2021/12/28 05:39:04;;;;;;;14.90;8.37;;;;;;;5.55;67.45;99492.72;4923592;28;99958;-83
2021/12/28 05:41:30;;;;;;;11.97;7.87;;;;;;;5.54;67.45;99480.34;4922930;28;99374;-84
2021/12/28 05:43:55;;;;;;;13.07;8.10;;;;;;;5.60;67.31;99502.19;4923197;28;126499;-84
2021/12/28 05:46:20;;;;;;;14.73;8.97;;;;;;;5.58;67.32;99483.56;4923750;28;117428;-83
2021/12/28 05:48:47;;;;;;;15.00;8.80;;;;;;;5.59;67.46;99478.88;4923061;28;97597;-83
2021/12/28 05:51:13;;;;;;;13.97;9.00;;;;;;;5.59;67.09;99479.59;4925186;28;100415;-84
2021/12/28 05:53:38;;;;;;;15.03;8.80;;;;;;;5.59;67.47;99474.16;4912532;28;98371;-83
2021/12/28 05:56:04;;;;;;;13.37;8.97;;;;;;;5.63;67.66;99471.22;4925815;28;96634;-84
2021/12/28 05:58:29;;;;;;;14.10;8.37;;;;;;;5.64;67.45;99465.25;4923206;28;97208;-83
2021/12/28 06:00:55;;;;;;;15.83;8.93;;;;;;;5.63;67.23;99463.03;4922246;28;97236;-82
2021/12/28 06:03:21;;;;;;;13.43;8.30;;;;;;;5.62;67.33;99456.81;4922594;28;100621;-83
2021/12/28 06:05:46;;;;;;;14.37;8.50;;;;;;;5.62;67.52;99473.19;4925801;28;97416;-83
2021/12/28 06:08:11;;;;;;;15.90;8.93;;;;;;;5.61;67.57;99468.97;4923719;28;97487;-84
2021/12/28 06:10:36;;;;;;;21.07;9.70;;;;;;;5.59;67.27;99449.59;4922834;28;107336;-83
2021/12/28 06:13:02;;;;;;;13.37;9.10;;;;;;;5.62;67.48;99462.28;4924202;28;100146;-83
2021/12/28 06:15:27;;;;;;;14.10;7.97;;;;;;;5.63;67.52;99463.03;4920400;28;97709;-83
2021/12/28 06:17:53;;;;;;;16.10;8.70;;;;;;;5.65;67.41;99458.59;4925270;28;97184;-83
2021/12/28 06:20:18;;;;;;;11.10;7.77;;;;;;;5.66;67.53;99445.66;4926150;28;99105;-84
2021/12/28 06:22:43;;;;;;;14.83;8.40;;;;;;;5.66;67.48;99453.84;4927904;28;103576;-84
2021/12/28 06:25:09;;;;;;;13.43;8.60;;;;;;;5.64;67.54;99451.63;4924016;28;124150;-83
2021/12/28 06:27:34;;;;;;;12.23;8.03;;;;;;;5.61;67.15;99433.50;4924950;28;97617;-83
2021/12/28 06:29:59;;;;;;;13.73;8.07;;;;;;;5.63;67.72;99444.69;4923550;28;101190;-84
2021/12/28 06:32:25;;;;;;;12.20;8.53;;;;;;;5.64;67.58;99459.81;4918083;28;97406;-81
2021/12/28 06:34:50;;;;;;;13.13;8.80;;;;;;;5.63;67.52;99446.66;4918883;28;96782;-83
2021/12/28 06:37:16;;;;;;;15.07;9.20;;;;;;;5.61;67.52;99441.69;4924809;28;96992;-83
2021/12/28 06:39:41;;;;;;;13.57;8.30;;;;;;;5.63;67.66;99454.84;4937479;28;99832;-83
2021/12/28 06:42:06;;;;;;;13.30;8.63;;;;;;;5.60;67.51;99456.56;4925409;28;100362;-84
2021/12/28 06:44:32;;;;;;;13.70;8.67;;;;;;;5.60;67.49;99444.91;4920109;28;97168;-83
2021/12/28 06:46:57;;;;;;;17.13;10.03;;;;;;;5.60;67.52;99458.53;4931400;28;97341;-82
2021/12/28 06:49:23;;;;;;;15.37;8.43;;;;;;;5.60;67.74;99440.19;4923577;28;115100;-84
2021/12/28 06:51:48;;;;;;;17.73;9.57;;;;;;;5.60;67.57;99448.38;4922788;28;104117;-83
2021/12/28 06:54:14;;;;;;;14.73;9.07;;;;;;;5.63;67.66;99449.38;4924010;28;97318;-83
2021/12/28 06:56:40;;;;;;;18.03;9.67;;;;;;;5.61;67.48;99444.44;4923014;28;97308;-83
2021/12/28 06:59:05;;;;;;;17.43;8.87;;;;;;;5.60;67.44;99453.06;4920666;28;97917;-83
2021/12/28 07:01:31;;;;;;;18.77;8.20;;;;;;;5.55;67.75;99454.53;4922576;28;97573;-83
2021/12/28 07:03:56;;;;;;;14.23;8.57;;;;;;;5.51;67.55;99488.72;4923214;28;100170;-83
2021/12/28 07:06:24;;;;;;;13.50;8.60;;;;;;;5.37;67.33;99435.84;4938145;28;97160;-83
2021/12/28 07:08:49;;;;;;;15.87;9.17;;;;;;;5.36;67.35;99460.84;4924740;28;100566;-83
2021/12/28 07:11:15;;;;;;;23.40;8.33;;;;;;;5.32;67.05;99450.19;4922565;28;98761;-83
2021/12/28 07:13:41;;;;;;;11.03;7.57;;;;;;;5.26;67.17;99446.66;4924632;28;98214;-83
2021/12/28 07:16:06;;;;;;;15.97;9.10;;;;;;;5.20;67.34;99441.16;4921145;28;97038;-85
2021/12/28 07:18:31;;;;;;;15.83;8.30;;;;;;;5.16;67.47;99451.53;4924881;28;127026;-83
2021/12/28 07:20:58;;;;;;;17.40;8.33;;;;;;;5.12;67.72;99436.63;4926939;28;114417;-84
2021/12/28 07:23:24;;;;;;;16.00;8.40;;;;;;;5.12;67.38;99447.53;4925725;28;97379;-82
2021/12/28 07:25:53;;;;;;;16.53;9.17;;;;;;;5.06;67.19;99436.59;4928724;28;96813;-84
2021/12/28 07:28:18;;;;;;;16.43;8.50;;;;;;;5.04;67.27;99430.13;4922270;28;98891;-83
2021/12/28 07:30:44;;;;;;;12.87;7.57;;;;;;;5.02;67.34;99446.94;4922739;28;98379;-83
2021/12/28 07:33:09;;;;;;;13.93;7.50;;;;;;;5.03;67.58;99439.53;4924773;28;97239;-82
2021/12/28 07:35:34;;;;;;;16.43;9.20;;;;;;;5.03;67.22;99437.56;4925658;28;117346;-82
2021/12/28 07:37:59;;;;;;;33.30;11.30;;;;;;;5.05;67.41;99428.91;4923874;28;97703;-83
2021/12/28 07:40:25;;;;;;;11.80;7.60;;;;;;;5.03;67.54;99440.28;4928451;28;102333;-83
2021/12/28 07:42:50;;;;;;;19.20;8.67;;;;;;;4.99;67.66;99455.34;4926715;28;106942;-83
2021/12/28 07:45:16;;;;;;;17.07;8.80;;;;;;;4.99;67.63;99428.88;4929190;28;97182;-83
2021/12/28 07:47:42;;;;;;;16.80;8.80;;;;;;;5.03;67.53;99474.97;4927282;28;98646;-83
2021/12/28 07:50:10;;;;;;;16.13;8.53;;;;;;;5.04;67.53;99432.88;4922373;28;97278;-83
2021/12/28 07:52:35;;;;;;;15.60;9.07;;;;;;;4.96;67.75;99461.75;4928497;28;96799;-82
2021/12/28 07:55:04;;;;;;;15.60;8.30;;;;;;;5.03;67.89;99434.84;4922378;28;96694;-83
2021/12/28 07:57:30;;;;;;;16.43;9.17;;;;;;;5.00;67.86;99424.88;4935640;28;104210;-82
2021/12/28 07:59:56;;;;;;;25.90;9.00;;;;;;;5.04;67.49;99419.25;4924640;28;97714;-82
2021/12/28 08:02:21;;;;;;;18.27;8.17;;;;;;;5.02;67.47;99418.97;4938884;28;97059;-85
2021/12/28 08:04:47;;;;;;;18.53;8.60;;;;;;;4.94;67.49;99464.22;4929685;28;103039;-84
2021/12/28 08:07:13;;;;;;;17.00;9.00;;;;;;;5.02;67.76;99443.50;4924614;28;99534;-82
2021/12/28 08:09:38;;;;;;;17.57;8.83;;;;;;;4.98;67.92;99411.00;4918896;28;98353;-82
2021/12/28 08:12:04;;;;;;;15.80;8.43;;;;;;;5.05;67.79;99426.91;4925203;28;103007;-83
2021/12/28 08:14:30;;;;;;;19.43;8.03;;;;;;;4.98;67.50;99394.66;4926958;28;96920;-83
2021/12/28 08:16:55;;;;;;;27.33;10.30;;;;;;;5.03;67.43;99418.47;4927381;28;99189;-84
2021/12/28 08:19:20;;;;;;;22.37;9.57;;;;;;;4.98;67.50;99411.00;4924616;28;99466;-83
2021/12/28 08:21:45;;;;;;;16.77;8.50;;;;;;;4.97;67.58;99403.31;4926786;28;97727;-84
2021/12/28 08:24:11;;;;;;;17.57;8.13;;;;;;;4.87;67.73;99388.38;4926918;28;96753;-84
2021/12/28 08:26:36;;;;;;;14.10;8.13;;;;;;;5.00;67.61;99402.38;4925644;28;99332;-83
2021/12/28 08:29:02;;;;;;;14.43;7.90;;;;;;;5.02;67.81;99457.13;4920056;28;100360;-82
2021/12/28 08:31:28;;;;;;;22.10;10.23;;;;;;;5.04;67.59;99391.97;4924156;28;96760;-83
2021/12/28 08:33:54;;;;;;;18.83;9.23;;;;;;;5.05;67.53;99402.41;4925195;28;97306;-83
2021/12/28 08:36:19;;;;;;;34.43;10.67;;;;;;;5.01;67.61;99390.97;4925263;28;97965;-83
2021/12/28 08:38:45;;;;;;;16.20;8.90;;;;;;;4.99;67.76;99406.31;4921475;28;97561;-83
2021/12/28 08:41:11;;;;;;;19.23;9.00;;;;;;;5.01;67.47;99390.22;4920057;28;98667;-84
2021/12/28 08:43:37;;;;;;;16.67;8.30;;;;;;;5.03;67.69;99390.47;4921752;28;97073;-83
2021/12/28 08:46:02;;;;;;;18.87;9.93;;;;;;;5.02;67.74;99389.00;4938680;28;101132;-82
2021/12/28 08:48:28;;;;;;;15.20;8.37;;;;;;;5.05;68.00;99398.91;4920703;28;100196;-84
2021/12/28 08:50:53;;;;;;;32.00;10.50;;;;;;;5.06;67.34;99389.53;4928851;28;97634;-84
2021/12/28 08:53:19;;;;;;;13.47;7.87;;;;;;;4.93;67.75;99430.81;4922861;28;97089;-83
2021/12/28 08:55:44;;;;;;;16.10;8.57;;;;;;;4.99;67.52;99382.53;4924729;28;99356;-83
2021/12/28 08:58:10;;;;;;;15.07;8.23;;;;;;;4.92;68.01;99412.19;4923000;28;98740;-83
2021/12/28 09:00:36;;;;;;;30.20;10.13;;;;;;;5.02;67.60;99376.09;4922791;28;104395;-84
2021/12/28 09:03:02;;;;;;;17.43;8.00;;;;;;;5.03;67.74;99368.69;4925487;28;96577;-83
2021/12/28 09:05:29;;;;;;;18.03;7.30;;;;;;;5.05;67.41;99372.41;4922405;28;105893;-83
2021/12/28 09:07:56;;;;;;;18.53;8.77;;;;;;;5.05;67.91;99382.56;4926107;28;97729;-85
2021/12/28 09:10:25;;;;;;;25.00;9.43;;;;;;;5.01;67.88;99423.69;4939091;28;97057;-83
2021/12/28 09:12:50;;;;;;;24.73;9.30;;;;;;;5.06;68.04;99363.03;4924167;28;97197;-84
2021/12/28 09:15:16;;;;;;;13.27;8.03;;;;;;;5.03;67.94;99390.47;4922695;28;98748;-83
2021/12/28 09:17:41;;;;;;;21.57;9.90;;;;;;;5.12;68.32;99368.50;4923074;28;97114;-83
2021/12/28 09:20:12;;;;;;;15.03;8.13;;;;;;;5.02;68.06;99383.56;4923823;28;97356;-84
2021/12/28 09:22:38;;;;;;;18.37;7.77;;;;;;;5.18;68.15;99385.63;4922220;28;97056;-83
2021/12/28 09:25:04;;;;;;;14.90;8.50;;;;;;;5.15;67.95;99349.22;4921385;28;98904;-83
2021/12/28 09:27:30;;;;;;;15.40;8.47;;;;;;;5.23;68.01;99355.69;4937476;28;101188;-84
2021/12/28 09:29:55;;;;;;;16.37;9.07;;;;;;;5.31;68.00;99364.91;4925906;28;96913;-83
2021/12/28 09:32:20;;;;;;;16.80;7.90;;;;;;;5.36;67.98;99379.78;4922401;28;97202;-83
2021/12/28 09:34:49;;;;;;;23.57;8.70;;;;;;;5.41;68.02;99387.28;4915944;28;121141;-83
2021/12/28 09:37:15;;;;;;;13.33;7.93;;;;;;;5.45;67.94;99365.97;4923101;28;100325;-84
2021/12/28 09:39:41;;;;;;;15.73;7.47;;;;;;;5.50;67.87;99369.97;4926039;28;97451;-83
2021/12/28 09:42:06;;;;;;;14.90;7.50;;;;;;;5.56;68.09;99363.31;4925910;28;97424;-83
2021/12/28 09:44:33;;;;;;;13.10;7.27;;;;;;;5.56;68.15;99359.81;4926950;28;100420;-84
2021/12/28 09:47:00;;;;;;;13.70;8.20;;;;;;;5.60;68.29;99349.41;4926004;28;99817;-82
2021/12/28 09:49:28;;;;;;;16.03;9.27;;;;;;;5.63;67.89;99341.03;4930208;28;96864;-84
2021/12/28 09:51:55;;;;;;;15.60;7.90;;;;;;;5.66;68.05;99342.00;4924840;28;97378;-83
2021/12/28 09:54:24;;;;;;;16.70;8.63;;;;;;;5.68;68.02;99339.56;4925947;28;98716;-83
2021/12/28 09:56:50;;;;;;;11.83;7.90;;;;;;;5.66;67.92;99337.28;4923279;28;100619;-83
2021/12/28 09:59:15;;;;;;;13.03;7.50;;;;;;;5.69;68.07;99328.13;4925968;28;97257;-83
2021/12/28 10:01:41;;;;;;;13.50;8.50;;;;;;;5.73;68.11;99330.63;4928074;28;116412;-83
2021/12/28 10:04:07;;;;;;;21.53;7.43;;;;;;;5.71;68.13;99322.94;4921127;28;96766;-83
2021/12/28 10:06:33;;;;;;;16.83;8.33;;;;;;;5.76;68.09;99379.53;4933257;28;99335;-83
2021/12/28 10:09:23;;;;;;;11.87;7.77;;;;;;;5.96;68.47;99316.56;4924695;28;97565;-87
2021/12/28 10:11:53;;;;;;;16.97;7.90;;;;;;;6.03;68.09;99320.81;4924320;28;96800;-83
2021/12/28 10:14:29;;;;;;;13.60;7.70;;;;;;;6.21;68.50;99314.16;4941171;28;98948;-84
2021/12/28 10:16:56;;;;;;;15.27;7.70;;;;;;;6.26;68.58;99314.16;4949669;28;97566;-81
2021/12/28 10:19:33;;;;;;;12.00;7.07;;;;;;;6.41;68.51;99319.38;4940181;28;97310;-83
2021/12/28 10:22:19;;;;;;;11.30;7.13;;;;;;;6.50;68.58;99308.22;4948528;28;96601;-83
2021/12/28 10:24:45;;;;;;;13.00;6.97;;;;;;;6.63;68.38;99309.22;4935319;28;100624;-82
2021/12/28 10:27:16;;;;;;;9.57;6.60;;;;;;;6.74;68.44;99300.25;4927549;28;103446;-84
2021/12/28 10:29:42;;;;;;;12.30;6.90;;;;;;;6.80;68.21;99296.28;4936602;28;96626;-85
2021/12/28 10:32:28;;;;;;;10.03;6.47;;;;;;;6.84;68.54;99292.56;4933239;28;97469;-83
2021/12/28 10:34:59;;;;;;;9.23;6.40;;;;;;;6.86;68.36;99292.81;4930327;28;103484;-83
2021/12/28 10:37:29;;;;;;;11.50;6.47;;;;;;;6.89;68.26;99292.53;4946571;28;105974;-83
2021/12/28 10:39:58;;;;;;;10.33;7.07;;;;;;;6.94;68.43;99294.53;4931109;28;96933;-85
2021/12/28 10:42:42;;;;;;;9.80;6.47;;;;;;;6.95;68.34;99276.13;4920053;28;103267;-83
2021/12/28 10:45:11;;;;;;;11.20;6.50;;;;;;;6.96;68.38;99275.63;4968955;28;103158;-83
2021/12/28 10:47:36;;;;;;;17.13;7.00;;;;;;;6.97;68.03;99285.31;4965437;28;101899;-83
2021/12/28 10:50:26;;;;;;;8.80;5.97;;;;;;;7.03;69.04;99261.47;4938108;28;98741;-84
2021/12/28 10:53:06;;;;;;;12.77;6.20;;;;;;;7.04;68.50;99259.44;4924339;28;96718;-84
2021/12/28 10:55:33;;;;;;;10.73;6.90;;;;;;;7.07;68.19;99270.13;4935319;28;99392;-83
2021/12/28 10:57:59;;;;;;;10.10;6.23;;;;;;;7.10;68.15;99258.19;4939443;28;97808;-81
2021/12/28 11:00:26;;;;;;;11.50;5.87;;;;;;;7.11;68.60;99278.81;4932869;28;97015;-82
2021/12/28 11:03:13;;;;;;;13.30;5.93;;;;;;;7.11;68.30;99254.22;4933512;28;96988;-83
2021/12/28 11:05:39;;;;;;;13.63;5.60;;;;;;;7.17;68.38;99244.00;4937268;28;99379;-81
2021/12/28 11:08:08;;;;;;;9.60;6.77;;;;;;;7.22;68.62;99248.72;4936801;28;99248;-81
2021/12/28 11:10:39;;;;;;;10.37;6.40;;;;;;;7.21;68.19;99243.72;4936405;28;97002;-83
2021/12/28 11:13:04;;;;;;;11.27;5.30;;;;;;;7.23;68.27;99244.72;4936233;28;97338;-83
2021/12/28 11:15:36;;;;;;;10.93;6.07;;;;;;;7.20;68.58;99236.78;4939035;28;97979;-82
2021/12/28 11:18:23;;;;;;;9.57;5.50;;;;;;;7.24;69.14;99235.28;4931035;28;97520;-84
2021/12/28 11:20:50;;;;;;;7.87;5.57;;;;;;;7.29;68.73;99244.72;4935978;28;97342;-83
2021/12/28 11:23:19;;;;;;;9.13;6.27;;;;;;;7.35;68.61;99223.53;4968109;28;97049;-82
2021/12/28 11:25:46;;;;;;;7.77;5.70;;;;;;;7.42;68.83;99229.22;4926548;28;97856;-81
2021/12/28 11:28:13;;;;;;;10.37;5.50;;;;;;;7.50;68.45;99223.97;4934332;28;99274;-80
2021/12/28 11:30:59;;;;;;;11.00;5.97;;;;;;;7.53;68.69;99220.22;4938398;28;97747;-83
2021/12/28 11:33:25;;;;;;;8.67;5.43;;;;;;;7.58;68.55;99217.44;4936320;28;97222;-80